메인 페이지
METAR-TAF:

METAR-TAF

공항 :

스타방에르, 노르웨이

위도: 58-53N, 경도: 005-38E, 고도: 0m

현재 날씨관측

예보는 37분 전, 07:50시(UTC)에 발표되었습니다.
10kt
온도 13°C
습도 82%
기압 1017 hPa
시정 10km 이상
고도 1000ft 상공 구름 조금
고도 2500ft 상공 구름 많음

METAR: ENZV 200750Z 28010KT 9999 FEW010 BKN025 13/10 Q1017 NOSIG

시각: 10:27 (08:27 UTC)

예보

예보는 2 시간 20분 전, 06:07시(UTC)에 발표되었습니다.
예보 대상 시간: 20일 06시부터 21일 06시까지 (UTC)
서남서8kt
시정 10km 이상
고도 1000ft 상공 구름 조금
고도 2000ft 상공 구름 많음
일시적
20일 06시부터 20일 08시까지 (UTC)
고도 900ft 상공 구름 많음
전환 중
20일 11시부터 20일 13시까지 (UTC)
서북서10kt
전환 중
20일 22시부터 20일 24시까지 (UTC)
여러 방향의 바람 3kt

TAF: ENZV 200607Z 2006/2106 24008KT 9999 FEW010 BKN020 TEMPO 2006/2008 BKN009 BECMG 2011/2013 30010KT BECMG 2022/2024 VRB03KT

4,000개 이상의 공항 관측 자료 및 예보 (METAR 및 TAF 보고).

지도상에서 검색 가능한 기상관측소가 노란 점과 빨간 점으로 표시되어 있습니다.

기상관측소 명을 보려면 표시 위로 마우스를 이동하세요.

날씨 관측과 예보를 보려면 클릭하세요.

지도 변경 : 확대하려면 엑스 표시가 있는 녹색 버튼, 축소하려면 빼기 표시가 있는 녹색 버튼, 다음 페이지의 지도를 보려면 녹색 화살표를 클릭하세요.


METAR-TAF: